Clear Creek, Iowa
Current Conditions -  °F | °C
As of 10:55 PM on Friday 24 Oct 2014 (Local Time) from KAWG Reporting Station
Moderate Fog Moderate Fog  
Wind Chill: 52°   Ceiling: 100
Heat Index: 52°   Visibility: 0mi
Dew Point: 52°   Wind: 5mph
Humidity: 100%   Direction: 180°S
Pressure: 29.95"   Gusts: NA
Location:  41.3169°N, 91.9953°W
Report Text: KAWG 250355Z AUTO 18004KT M1/4SM FG OVC001 11/11 A2995 RMK AO2
Loading
Personal Weather Stations






























Interactive Weather Map
Tropical Storm Tracking
New forecast layout! Learn more

10-Day Weather Forecast

Advertisements
Track Severe Weather on mobile